sensor_id;sensor_type;location;lat;lon;timestamp;temperature;humidity
758;DHT22;363;48.764;9.172;2022-09-27T00:00:35;11.80;99.90
758;DHT22;363;48.764;9.172;2022-09-27T00:03:02;11.80;99.90
758;DHT22;363;48.764;9.172;2022-09-27T00:05:28;12.10;99.90
758;DHT22;363;48.764;9.172;2022-09-27T00:07:55;11.70;99.90
758;DHT22;363;48.764;9.172;2022-09-27T00:10:20;11.90;99.90
758;DHT22;363;48.764;9.172;2022-09-27T00:12:46;11.80;99.90
758;DHT22;363;48.764;9.172;2022-09-27T00:15:13;11.70;99.90
758;DHT22;363;48.764;9.172;2022-09-27T00:17:39;11.90;99.90
758;DHT22;363;48.764;9.172;2022-09-27T00:20:07;12.00;99.90
758;DHT22;363;48.764;9.172;2022-09-27T00:22:34;11.80;99.90
758;DHT22;363;48.764;9.172;2022-09-27T00:25:00;11.70;99.90
758;DHT22;363;48.764;9.172;2022-09-27T00:27:26;11.80;99.90
758;DHT22;363;48.764;9.172;2022-09-27T00:29:52;11.70;99.90
758;DHT22;363;48.764;9.172;2022-09-27T00:32:18;11.90;99.90
758;DHT22;363;48.764;9.172;2022-09-27T00:34:44;11.80;99.90
758;DHT22;363;48.764;9.172;2022-09-27T00:37:10;11.90;99.90
758;DHT22;363;48.764;9.172;2022-09-27T00:39:36;11.50;99.90
758;DHT22;363;48.764;9.172;2022-09-27T00:42:05;11.60;99.90
758;DHT22;363;48.764;9.172;2022-09-27T00:49:32;11.90;99.90
758;DHT22;363;48.764;9.172;2022-09-27T00:52:06;11.90;99.90
758;DHT22;363;48.764;9.172;2022-09-27T00:54:33;11.80;99.90
758;DHT22;363;48.764;9.172;2022-09-27T00:57:02;11.60;99.90
758;DHT22;363;48.764;9.172;2022-09-27T00:59:33;11.80;99.90
758;DHT22;363;48.764;9.172;2022-09-27T01:02:00;11.80;99.90
758;DHT22;363;48.764;9.172;2022-09-27T01:04:27;11.80;99.90
758;DHT22;363;48.764;9.172;2022-09-27T01:06:54;11.60;99.90
758;DHT22;363;48.764;9.172;2022-09-27T01:09:21;11.90;99.90
758;DHT22;363;48.764;9.172;2022-09-27T01:14:42;11.90;99.90
758;DHT22;363;48.764;9.172;2022-09-27T01:26:27;11.90;99.90
758;DHT22;363;48.764;9.172;2022-09-27T01:29:06;11.60;99.90
758;DHT22;363;48.764;9.172;2022-09-27T01:31:42;11.70;99.90
758;DHT22;363;48.764;9.172;2022-09-27T01:42:36;12.00;99.90
758;DHT22;363;48.764;9.172;2022-09-27T01:45:22;11.70;99.90
758;DHT22;363;48.764;9.172;2022-09-27T01:47:54;11.80;99.90
758;DHT22;363;48.764;9.172;2022-09-27T01:50:43;12.00;99.90
758;DHT22;363;48.764;9.172;2022-09-27T01:53:30;12.00;99.90
758;DHT22;363;48.764;9.172;2022-09-27T01:55:59;11.90;99.90
758;DHT22;363;48.764;9.172;2022-09-27T02:01:05;12.00;99.90
758;DHT22;363;48.764;9.172;2022-09-27T02:03:38;12.10;99.90
758;DHT22;363;48.764;9.172;2022-09-27T02:06:16;12.10;99.90
758;DHT22;363;48.764;9.172;2022-09-27T02:11:15;11.90;99.90
758;DHT22;363;48.764;9.172;2022-09-27T02:13:55;11.90;99.90
758;DHT22;363;48.764;9.172;2022-09-27T02:19:49;11.90;99.90
758;DHT22;363;48.764;9.172;2022-09-27T02:22:37;11.90;99.90
758;DHT22;363;48.764;9.172;2022-09-27T02:25:25;12.10;99.90
758;DHT22;363;48.764;9.172;2022-09-27T02:30:40;12.00;99.90
758;DHT22;363;48.764;9.172;2022-09-27T02:33:06;12.00;99.90
758;DHT22;363;48.764;9.172;2022-09-27T02:35:34;11.70;99.90
758;DHT22;363;48.764;9.172;2022-09-27T02:38:02;11.90;99.90
758;DHT22;363;48.764;9.172;2022-09-27T02:40:44;11.80;99.90
758;DHT22;363;48.764;9.172;2022-09-27T02:43:11;11.80;99.90
758;DHT22;363;48.764;9.172;2022-09-27T02:51:45;11.50;99.90
758;DHT22;363;48.764;9.172;2022-09-27T03:00:22;11.70;99.90
758;DHT22;363;48.764;9.172;2022-09-27T03:05:24;11.40;99.90
758;DHT22;363;48.764;9.172;2022-09-27T03:07:50;11.20;99.90
758;DHT22;363;48.764;9.172;2022-09-27T03:10:19;11.30;99.90
758;DHT22;363;48.764;9.172;2022-09-27T03:12:45;11.30;99.90
758;DHT22;363;48.764;9.172;2022-09-27T03:15:11;11.10;99.90
758;DHT22;363;48.764;9.172;2022-09-27T03:17:36;11.20;99.90
758;DHT22;363;48.764;9.172;2022-09-27T03:20:03;11.30;99.90
758;DHT22;363;48.764;9.172;2022-09-27T03:22:28;11.40;99.90
758;DHT22;363;48.764;9.172;2022-09-27T03:24:54;11.10;99.90
758;DHT22;363;48.764;9.172;2022-09-27T03:27:19;11.00;99.90
758;DHT22;363;48.764;9.172;2022-09-27T03:29:45;11.20;99.90
758;DHT22;363;48.764;9.172;2022-09-27T03:32:11;11.20;99.90
758;DHT22;363;48.764;9.172;2022-09-27T03:34:36;11.20;99.90
758;DHT22;363;48.764;9.172;2022-09-27T03:37:02;11.10;99.90
758;DHT22;363;48.764;9.172;2022-09-27T03:39:28;11.10;99.90
758;DHT22;363;48.764;9.172;2022-09-27T03:41:54;11.00;99.90
758;DHT22;363;48.764;9.172;2022-09-27T03:44:21;11.00;99.90
758;DHT22;363;48.764;9.172;2022-09-27T03:46:46;11.10;99.90
758;DHT22;363;48.764;9.172;2022-09-27T03:49:12;11.00;99.90
758;DHT22;363;48.764;9.172;2022-09-27T03:51:38;11.10;99.90
758;DHT22;363;48.764;9.172;2022-09-27T03:54:06;11.00;99.90
758;DHT22;363;48.764;9.172;2022-09-27T03:56:32;11.00;99.90
758;DHT22;363;48.764;9.172;2022-09-27T03:58:58;10.90;99.90
758;DHT22;363;48.764;9.172;2022-09-27T04:01:23;10.90;99.90
758;DHT22;363;48.764;9.172;2022-09-27T04:03:51;11.00;99.90
758;DHT22;363;48.764;9.172;2022-09-27T04:06:16;11.10;99.90
758;DHT22;363;48.764;9.172;2022-09-27T04:08:43;10.90;99.90
758;DHT22;363;48.764;9.172;2022-09-27T04:11:09;10.90;99.90
758;DHT22;363;48.764;9.172;2022-09-27T04:13:35;11.00;99.90
758;DHT22;363;48.764;9.172;2022-09-27T04:16:01;11.10;99.90
758;DHT22;363;48.764;9.172;2022-09-27T04:18:27;10.60;99.90
758;DHT22;363;48.764;9.172;2022-09-27T04:20:53;10.80;99.90
758;DHT22;363;48.764;9.172;2022-09-27T04:23:20;11.00;99.90
758;DHT22;363;48.764;9.172;2022-09-27T04:25:46;11.00;99.90
758;DHT22;363;48.764;9.172;2022-09-27T04:28:12;11.10;99.90
758;DHT22;363;48.764;9.172;2022-09-27T04:30:40;10.80;99.90
758;DHT22;363;48.764;9.172;2022-09-27T04:33:06;11.00;99.90
758;DHT22;363;48.764;9.172;2022-09-27T04:35:32;11.00;99.90
758;DHT22;363;48.764;9.172;2022-09-27T04:38:16;10.90;99.90
758;DHT22;363;48.764;9.172;2022-09-27T04:40:44;11.20;99.90
758;DHT22;363;48.764;9.172;2022-09-27T04:43:13;11.10;99.90
758;DHT22;363;48.764;9.172;2022-09-27T04:45:39;11.30;99.90
758;DHT22;363;48.764;9.172;2022-09-27T04:48:05;11.30;99.90
758;DHT22;363;48.764;9.172;2022-09-27T04:50:30;11.30;99.90
758;DHT22;363;48.764;9.172;2022-09-27T04:52:57;11.40;99.90
758;DHT22;363;48.764;9.172;2022-09-27T04:55:22;11.20;99.90
758;DHT22;363;48.764;9.172;2022-09-27T04:57:48;11.40;99.90
758;DHT22;363;48.764;9.172;2022-09-27T05:00:15;11.20;99.90
758;DHT22;363;48.764;9.172;2022-09-27T05:02:45;11.40;99.90
758;DHT22;363;48.764;9.172;2022-09-27T05:05:13;11.50;99.90
758;DHT22;363;48.764;9.172;2022-09-27T05:07:39;11.60;99.90
758;DHT22;363;48.764;9.172;2022-09-27T05:10:06;11.10;99.90
758;DHT22;363;48.764;9.172;2022-09-27T05:12:32;11.20;99.90
758;DHT22;363;48.764;9.172;2022-09-27T05:14:59;11.20;99.90
758;DHT22;363;48.764;9.172;2022-09-27T05:17:24;11.20;99.90
758;DHT22;363;48.764;9.172;2022-09-27T05:19:50;11.40;99.90
758;DHT22;363;48.764;9.172;2022-09-27T05:22:16;11.30;99.90
758;DHT22;363;48.764;9.172;2022-09-27T05:24:42;11.30;99.90
758;DHT22;363;48.764;9.172;2022-09-27T05:27:15;11.30;99.90
758;DHT22;363;48.764;9.172;2022-09-27T05:29:45;11.40;99.90
758;DHT22;363;48.764;9.172;2022-09-27T05:32:11;11.30;99.90
758;DHT22;363;48.764;9.172;2022-09-27T05:34:37;11.20;99.90
758;DHT22;363;48.764;9.172;2022-09-27T05:37:02;11.40;99.90
758;DHT22;363;48.764;9.172;2022-09-27T05:39:28;11.40;99.90
758;DHT22;363;48.764;9.172;2022-09-27T05:41:54;11.40;99.90
758;DHT22;363;48.764;9.172;2022-09-27T05:44:20;11.40;99.90
758;DHT22;363;48.764;9.172;2022-09-27T05:46:46;11.40;99.90
758;DHT22;363;48.764;9.172;2022-09-27T05:49:12;11.40;99.90
758;DHT22;363;48.764;9.172;2022-09-27T05:51:38;11.30;99.90
758;DHT22;363;48.764;9.172;2022-09-27T05:54:04;11.40;99.90
758;DHT22;363;48.764;9.172;2022-09-27T05:56:30;11.20;99.90
758;DHT22;363;48.764;9.172;2022-09-27T05:58:56;11.00;99.90
758;DHT22;363;48.764;9.172;2022-09-27T06:01:22;10.90;99.90
758;DHT22;363;48.764;9.172;2022-09-27T06:03:49;11.20;99.90
758;DHT22;363;48.764;9.172;2022-09-27T06:06:15;11.10;99.90
758;DHT22;363;48.764;9.172;2022-09-27T06:08:41;11.20;99.90
758;DHT22;363;48.764;9.172;2022-09-27T06:11:11;11.10;99.90
758;DHT22;363;48.764;9.172;2022-09-27T06:13:38;10.90;99.90
758;DHT22;363;48.764;9.172;2022-09-27T06:16:06;11.10;99.90
758;DHT22;363;48.764;9.172;2022-09-27T06:18:32;11.20;99.90
758;DHT22;363;48.764;9.172;2022-09-27T06:20:59;11.20;99.90
758;DHT22;363;48.764;9.172;2022-09-27T06:23:28;11.20;99.90
758;DHT22;363;48.764;9.172;2022-09-27T06:26:03;11.40;99.90
758;DHT22;363;48.764;9.172;2022-09-27T06:28:46;11.50;99.90
758;DHT22;363;48.764;9.172;2022-09-27T06:31:12;11.30;99.90
758;DHT22;363;48.764;9.172;2022-09-27T06:33:38;11.50;99.90
758;DHT22;363;48.764;9.172;2022-09-27T06:36:05;11.80;99.90
758;DHT22;363;48.764;9.172;2022-09-27T06:38:32;11.70;99.90
758;DHT22;363;48.764;9.172;2022-09-27T06:41:02;11.90;99.90
758;DHT22;363;48.764;9.172;2022-09-27T06:43:28;11.90;99.90
758;DHT22;363;48.764;9.172;2022-09-27T06:45:54;11.90;99.90
758;DHT22;363;48.764;9.172;2022-09-27T06:48:20;12.10;99.90
758;DHT22;363;48.764;9.172;2022-09-27T06:50:46;11.70;99.90
758;DHT22;363;48.764;9.172;2022-09-27T06:53:15;11.80;99.90
758;DHT22;363;48.764;9.172;2022-09-27T06:55:41;11.90;99.90
758;DHT22;363;48.764;9.172;2022-09-27T06:58:09;12.00;99.90
758;DHT22;363;48.764;9.172;2022-09-27T07:00:54;11.90;99.90
758;DHT22;363;48.764;9.172;2022-09-27T07:03:21;12.10;99.90
758;DHT22;363;48.764;9.172;2022-09-27T07:05:55;12.20;99.90
758;DHT22;363;48.764;9.172;2022-09-27T07:08:21;12.20;99.90
758;DHT22;363;48.764;9.172;2022-09-27T07:10:48;12.10;99.90
758;DHT22;363;48.764;9.172;2022-09-27T07:13:14;12.00;99.90
758;DHT22;363;48.764;9.172;2022-09-27T07:15:41;11.90;99.90
758;DHT22;363;48.764;9.172;2022-09-27T07:18:07;11.80;99.90
758;DHT22;363;48.764;9.172;2022-09-27T07:20:34;12.00;99.90
758;DHT22;363;48.764;9.172;2022-09-27T07:23:03;12.50;99.90
758;DHT22;363;48.764;9.172;2022-09-27T07:25:30;12.40;99.90
758;DHT22;363;48.764;9.172;2022-09-27T07:28:00;12.70;99.90
758;DHT22;363;48.764;9.172;2022-09-27T07:30:26;12.80;99.90
758;DHT22;363;48.764;9.172;2022-09-27T07:32:57;13.00;99.90
758;DHT22;363;48.764;9.172;2022-09-27T07:35:23;13.00;99.90
758;DHT22;363;48.764;9.172;2022-09-27T07:37:49;13.20;99.90
758;DHT22;363;48.764;9.172;2022-09-27T07:40:15;13.20;99.90
758;DHT22;363;48.764;9.172;2022-09-27T07:42:40;12.80;99.90
758;DHT22;363;48.764;9.172;2022-09-27T07:45:06;13.00;99.90
758;DHT22;363;48.764;9.172;2022-09-27T07:47:33;12.90;99.90
758;DHT22;363;48.764;9.172;2022-09-27T07:49:58;13.00;99.90
758;DHT22;363;48.764;9.172;2022-09-27T07:52:24;13.20;99.90
758;DHT22;363;48.764;9.172;2022-09-27T07:54:50;12.90;99.90
758;DHT22;363;48.764;9.172;2022-09-27T07:57:16;13.00;99.90
758;DHT22;363;48.764;9.172;2022-09-27T07:59:42;13.10;99.90
758;DHT22;363;48.764;9.172;2022-09-27T08:02:13;13.40;99.90
758;DHT22;363;48.764;9.172;2022-09-27T08:04:40;13.30;99.90
758;DHT22;363;48.764;9.172;2022-09-27T08:07:08;13.60;99.90
758;DHT22;363;48.764;9.172;2022-09-27T08:09:36;14.00;99.90
758;DHT22;363;48.764;9.172;2022-09-27T08:12:01;14.40;99.90
758;DHT22;363;48.764;9.172;2022-09-27T08:14:29;14.00;99.90
758;DHT22;363;48.764;9.172;2022-09-27T08:16:55;13.90;99.90
758;DHT22;363;48.764;9.172;2022-09-27T08:19:21;13.90;99.90
758;DHT22;363;48.764;9.172;2022-09-27T08:21:47;13.70;99.90
758;DHT22;363;48.764;9.172;2022-09-27T08:24:13;13.90;99.90
758;DHT22;363;48.764;9.172;2022-09-27T08:26:39;14.00;99.90
758;DHT22;363;48.764;9.172;2022-09-27T08:29:05;14.00;99.90
758;DHT22;363;48.764;9.172;2022-09-27T08:31:31;14.00;99.90
758;DHT22;363;48.764;9.172;2022-09-27T08:33:57;14.00;99.90
758;DHT22;363;48.764;9.172;2022-09-27T08:36:23;14.20;99.90
758;DHT22;363;48.764;9.172;2022-09-27T08:38:50;13.90;99.90
758;DHT22;363;48.764;9.172;2022-09-27T08:41:35;14.30;99.90
758;DHT22;363;48.764;9.172;2022-09-27T08:49:42;14.10;99.50
758;DHT22;363;48.764;9.172;2022-09-27T08:52:30;13.90;99.90
758;DHT22;363;48.764;9.172;2022-09-27T08:55:01;14.00;99.90
758;DHT22;363;48.764;9.172;2022-09-27T08:57:27;13.50;99.90
758;DHT22;363;48.764;9.172;2022-09-27T09:00:11;13.70;99.90
758;DHT22;363;48.764;9.172;2022-09-27T09:02:40;13.60;99.90
758;DHT22;363;48.764;9.172;2022-09-27T09:05:30;13.20;99.90
758;DHT22;363;48.764;9.172;2022-09-27T09:11:29;13.50;99.90
758;DHT22;363;48.764;9.172;2022-09-27T09:18:20;13.70;99.90
758;DHT22;363;48.764;9.172;2022-09-27T09:23:37;14.40;99.90
758;DHT22;363;48.764;9.172;2022-09-27T09:31:50;15.20;98.50
758;DHT22;363;48.764;9.172;2022-09-27T09:39:54;15.30;97.30
758;DHT22;363;48.764;9.172;2022-09-27T09:42:31;15.10;97.30
758;DHT22;363;48.764;9.172;2022-09-27T09:45:21;15.00;97.10
758;DHT22;363;48.764;9.172;2022-09-27T09:48:03;15.30;97.10
758;DHT22;363;48.764;9.172;2022-09-27T09:50:44;16.20;96.80
758;DHT22;363;48.764;9.172;2022-09-27T09:55:51;19.40;83.80
758;DHT22;363;48.764;9.172;2022-09-27T09:58:26;19.90;79.20
758;DHT22;363;48.764;9.172;2022-09-27T10:00:57;19.20;78.90
758;DHT22;363;48.764;9.172;2022-09-27T10:03:25;18.90;80.90
758;DHT22;363;48.764;9.172;2022-09-27T10:05:51;18.40;82.10
758;DHT22;363;48.764;9.172;2022-09-27T10:08:21;18.00;81.80
758;DHT22;363;48.764;9.172;2022-09-27T10:10:48;17.60;82.10
758;DHT22;363;48.764;9.172;2022-09-27T10:13:17;17.50;82.30
758;DHT22;363;48.764;9.172;2022-09-27T10:15:54;17.70;83.00
758;DHT22;363;48.764;9.172;2022-09-27T10:18:21;17.70;83.00
758;DHT22;363;48.764;9.172;2022-09-27T10:20:51;17.70;83.50
758;DHT22;363;48.764;9.172;2022-09-27T10:23:22;17.50;83.00
758;DHT22;363;48.764;9.172;2022-09-27T10:25:59;17.00;84.60
758;DHT22;363;48.764;9.172;2022-09-27T10:28:29;16.90;85.00
758;DHT22;363;48.764;9.172;2022-09-27T10:31:03;16.40;85.70
758;DHT22;363;48.764;9.172;2022-09-27T10:33:30;16.00;87.20
758;DHT22;363;48.764;9.172;2022-09-27T10:35:57;15.60;88.30
758;DHT22;363;48.764;9.172;2022-09-27T10:38:27;15.30;90.20
758;DHT22;363;48.764;9.172;2022-09-27T10:40:55;15.10;91.10
758;DHT22;363;48.764;9.172;2022-09-27T10:46:26;14.90;92.40
758;DHT22;363;48.764;9.172;2022-09-27T10:49:34;15.50;91.60
758;DHT22;363;48.764;9.172;2022-09-27T10:52:09;15.40;90.60
758;DHT22;363;48.764;9.172;2022-09-27T10:54:39;15.50;90.70
758;DHT22;363;48.764;9.172;2022-09-27T10:57:29;15.60;90.20
758;DHT22;363;48.764;9.172;2022-09-27T11:02:43;15.90;90.60
758;DHT22;363;48.764;9.172;2022-09-27T11:07:59;15.90;90.80
758;DHT22;363;48.764;9.172;2022-09-27T11:10:34;15.90;90.40
758;DHT22;363;48.764;9.172;2022-09-27T11:22:00;15.80;91.40
758;DHT22;363;48.764;9.172;2022-09-27T11:27:58;15.70;89.70
758;DHT22;363;48.764;9.172;2022-09-27T11:39:32;15.80;90.10
758;DHT22;363;48.764;9.172;2022-09-27T11:55:27;15.80;90.40
758;DHT22;363;48.764;9.172;2022-09-27T11:58:33;15.60;90.40
758;DHT22;363;48.764;9.172;2022-09-27T12:09:31;15.40;92.20
758;DHT22;363;48.764;9.172;2022-09-27T12:12:03;14.90;92.00
758;DHT22;363;48.764;9.172;2022-09-27T12:16:58;14.90;95.50
758;DHT22;363;48.764;9.172;2022-09-27T12:19:31;14.70;96.50
758;DHT22;363;48.764;9.172;2022-09-27T12:22:01;14.40;97.00
758;DHT22;363;48.764;9.172;2022-09-27T12:24:28;14.10;97.30
758;DHT22;363;48.764;9.172;2022-09-27T12:27:00;13.60;99.10
758;DHT22;363;48.764;9.172;2022-09-27T12:29:37;13.70;99.90
758;DHT22;363;48.764;9.172;2022-09-27T12:32:17;13.30;99.90
758;DHT22;363;48.764;9.172;2022-09-27T12:35:16;13.40;99.90
758;DHT22;363;48.764;9.172;2022-09-27T12:37:46;13.00;99.90
758;DHT22;363;48.764;9.172;2022-09-27T12:40:29;13.30;99.90
758;DHT22;363;48.764;9.172;2022-09-27T12:42:57;12.50;99.90
758;DHT22;363;48.764;9.172;2022-09-27T12:51:09;12.40;99.90
758;DHT22;363;48.764;9.172;2022-09-27T12:53:51;12.80;99.90
758;DHT22;363;48.764;9.172;2022-09-27T12:59:13;13.10;99.90
758;DHT22;363;48.764;9.172;2022-09-27T13:04:20;13.50;99.90
758;DHT22;363;48.764;9.172;2022-09-27T13:12:40;13.40;99.90
758;DHT22;363;48.764;9.172;2022-09-27T13:15:27;13.60;99.90
758;DHT22;363;48.764;9.172;2022-09-27T13:17:55;13.50;99.90
758;DHT22;363;48.764;9.172;2022-09-27T13:22:58;13.30;99.90
758;DHT22;363;48.764;9.172;2022-09-27T13:25:52;13.30;99.90
758;DHT22;363;48.764;9.172;2022-09-27T13:30:54;13.20;99.90
758;DHT22;363;48.764;9.172;2022-09-27T13:33:50;13.00;99.90
758;DHT22;363;48.764;9.172;2022-09-27T13:36:35;12.80;99.90
758;DHT22;363;48.764;9.172;2022-09-27T13:47:24;12.60;99.90
758;DHT22;363;48.764;9.172;2022-09-27T13:50:01;12.30;99.90
758;DHT22;363;48.764;9.172;2022-09-27T13:55:00;12.40;99.90
758;DHT22;363;48.764;9.172;2022-09-27T13:57:48;12.30;99.90
758;DHT22;363;48.764;9.172;2022-09-27T14:05:17;12.30;99.90
758;DHT22;363;48.764;9.172;2022-09-27T14:07:45;12.50;99.90
758;DHT22;363;48.764;9.172;2022-09-27T14:10:17;12.60;99.90
758;DHT22;363;48.764;9.172;2022-09-27T14:12:45;12.40;99.90
758;DHT22;363;48.764;9.172;2022-09-27T14:15:18;12.40;99.90
758;DHT22;363;48.764;9.172;2022-09-27T14:17:45;12.50;99.90
758;DHT22;363;48.764;9.172;2022-09-27T14:22:57;12.10;99.90
758;DHT22;363;48.764;9.172;2022-09-27T14:25:24;12.20;99.90
758;DHT22;363;48.764;9.172;2022-09-27T14:27:50;12.00;99.90
758;DHT22;363;48.764;9.172;2022-09-27T14:30:22;11.90;99.90
758;DHT22;363;48.764;9.172;2022-09-27T14:32:53;11.90;99.90
758;DHT22;363;48.764;9.172;2022-09-27T14:35:29;11.90;99.90
758;DHT22;363;48.764;9.172;2022-09-27T14:38:16;11.80;99.90
758;DHT22;363;48.764;9.172;2022-09-27T14:40:58;12.20;99.90
758;DHT22;363;48.764;9.172;2022-09-27T14:43:24;11.90;99.90
758;DHT22;363;48.764;9.172;2022-09-27T14:45:55;12.00;99.90
758;DHT22;363;48.764;9.172;2022-09-27T14:48:33;12.10;99.90
758;DHT22;363;48.764;9.172;2022-09-27T14:51:03;12.10;99.90
758;DHT22;363;48.764;9.172;2022-09-27T14:53:36;12.00;99.90
758;DHT22;363;48.764;9.172;2022-09-27T14:56:05;12.20;99.90
758;DHT22;363;48.764;9.172;2022-09-27T14:58:32;12.10;99.90
758;DHT22;363;48.764;9.172;2022-09-27T15:00:58;12.20;99.90
758;DHT22;363;48.764;9.172;2022-09-27T15:03:29;12.40;99.90
758;DHT22;363;48.764;9.172;2022-09-27T15:06:00;12.30;99.90
758;DHT22;363;48.764;9.172;2022-09-27T15:08:29;12.40;99.90
758;DHT22;363;48.764;9.172;2022-09-27T15:10:58;12.20;99.90
758;DHT22;363;48.764;9.172;2022-09-27T15:13:24;12.10;99.90
758;DHT22;363;48.764;9.172;2022-09-27T15:15:52;12.30;99.90
758;DHT22;363;48.764;9.172;2022-09-27T15:21:02;12.10;99.90
758;DHT22;363;48.764;9.172;2022-09-27T15:23:34;12.10;99.90
758;DHT22;363;48.764;9.172;2022-09-27T15:26:22;12.20;99.90
758;DHT22;363;48.764;9.172;2022-09-27T15:28:50;12.40;99.90
758;DHT22;363;48.764;9.172;2022-09-27T15:31:29;12.50;99.90
758;DHT22;363;48.764;9.172;2022-09-27T15:33:56;12.50;99.90
758;DHT22;363;48.764;9.172;2022-09-27T15:39:19;12.70;99.90
758;DHT22;363;48.764;9.172;2022-09-27T15:42:08;12.60;99.90
758;DHT22;363;48.764;9.172;2022-09-27T15:44:38;12.90;99.90
758;DHT22;363;48.764;9.172;2022-09-27T15:55:13;12.50;99.90
758;DHT22;363;48.764;9.172;2022-09-27T15:57:41;12.80;99.90
758;DHT22;363;48.764;9.172;2022-09-27T16:00:13;12.60;99.90
758;DHT22;363;48.764;9.172;2022-09-27T16:02:38;12.70;99.90
758;DHT22;363;48.764;9.172;2022-09-27T16:05:04;12.80;99.90
758;DHT22;363;48.764;9.172;2022-09-27T16:07:30;12.50;99.90
758;DHT22;363;48.764;9.172;2022-09-27T16:09:55;12.70;99.90
758;DHT22;363;48.764;9.172;2022-09-27T16:12:21;12.70;99.90
758;DHT22;363;48.764;9.172;2022-09-27T16:14:47;12.50;99.90
758;DHT22;363;48.764;9.172;2022-09-27T16:17:13;12.80;99.90
758;DHT22;363;48.764;9.172;2022-09-27T16:19:39;12.50;99.90
758;DHT22;363;48.764;9.172;2022-09-27T16:22:04;12.80;99.90
758;DHT22;363;48.764;9.172;2022-09-27T16:24:31;12.40;99.90
758;DHT22;363;48.764;9.172;2022-09-27T16:26:57;12.50;99.90
758;DHT22;363;48.764;9.172;2022-09-27T16:29:23;12.70;99.90
758;DHT22;363;48.764;9.172;2022-09-27T16:31:49;12.40;99.90
758;DHT22;363;48.764;9.172;2022-09-27T16:34:15;12.40;99.90
758;DHT22;363;48.764;9.172;2022-09-27T16:36:41;12.20;99.90
758;DHT22;363;48.764;9.172;2022-09-27T16:39:10;12.20;99.90
758;DHT22;363;48.764;9.172;2022-09-27T16:41:37;12.30;99.90
758;DHT22;363;48.764;9.172;2022-09-27T16:44:07;12.40;99.50
758;DHT22;363;48.764;9.172;2022-09-27T16:46:32;12.40;99.10
758;DHT22;363;48.764;9.172;2022-09-27T16:48:59;12.40;99.80
758;DHT22;363;48.764;9.172;2022-09-27T16:51:25;12.30;99.70
758;DHT22;363;48.764;9.172;2022-09-27T16:54:10;12.30;99.90
758;DHT22;363;48.764;9.172;2022-09-27T16:56:36;12.60;99.90
758;DHT22;363;48.764;9.172;2022-09-27T16:59:02;12.40;99.90
758;DHT22;363;48.764;9.172;2022-09-27T17:01:30;12.20;99.90
758;DHT22;363;48.764;9.172;2022-09-27T17:03:55;12.40;99.80
758;DHT22;363;48.764;9.172;2022-09-27T17:06:22;12.40;99.90
758;DHT22;363;48.764;9.172;2022-09-27T17:08:47;12.20;99.90
758;DHT22;363;48.764;9.172;2022-09-27T17:11:15;12.20;99.20
758;DHT22;363;48.764;9.172;2022-09-27T17:13:42;12.40;99.50
758;DHT22;363;48.764;9.172;2022-09-27T17:16:08;12.30;99.80
758;DHT22;363;48.764;9.172;2022-09-27T17:18:35;12.40;99.90
758;DHT22;363;48.764;9.172;2022-09-27T17:21:02;12.20;99.70
758;DHT22;363;48.764;9.172;2022-09-27T17:23:32;12.20;99.10
758;DHT22;363;48.764;9.172;2022-09-27T17:26:18;11.90;99.70
758;DHT22;363;48.764;9.172;2022-09-27T17:28:45;12.40;99.90
758;DHT22;363;48.764;9.172;2022-09-27T17:31:12;12.30;99.80
758;DHT22;363;48.764;9.172;2022-09-27T17:33:47;12.30;99.80
758;DHT22;363;48.764;9.172;2022-09-27T17:36:15;12.20;99.90
758;DHT22;363;48.764;9.172;2022-09-27T17:38:42;12.30;99.90
758;DHT22;363;48.764;9.172;2022-09-27T17:41:11;12.40;99.90
758;DHT22;363;48.764;9.172;2022-09-27T17:43:41;12.30;99.90
758;DHT22;363;48.764;9.172;2022-09-27T17:46:14;12.30;99.90
758;DHT22;363;48.764;9.172;2022-09-27T17:48:40;12.50;99.90
758;DHT22;363;48.764;9.172;2022-09-27T17:51:24;12.10;99.90
758;DHT22;363;48.764;9.172;2022-09-27T17:53:50;12.10;99.90
758;DHT22;363;48.764;9.172;2022-09-27T17:56:16;12.10;99.90
758;DHT22;363;48.764;9.172;2022-09-27T17:58:53;12.30;99.90
758;DHT22;363;48.764;9.172;2022-09-27T18:01:21;12.00;99.90
758;DHT22;363;48.764;9.172;2022-09-27T18:03:47;12.30;99.90
758;DHT22;363;48.764;9.172;2022-09-27T18:06:14;12.20;99.90
758;DHT22;363;48.764;9.172;2022-09-27T18:08:43;11.90;99.90
758;DHT22;363;48.764;9.172;2022-09-27T18:11:11;12.00;99.90
758;DHT22;363;48.764;9.172;2022-09-27T18:13:38;12.00;99.90
758;DHT22;363;48.764;9.172;2022-09-27T18:18:37;11.90;99.90
758;DHT22;363;48.764;9.172;2022-09-27T18:21:08;11.70;99.90
758;DHT22;363;48.764;9.172;2022-09-27T18:23:41;11.90;99.90
758;DHT22;363;48.764;9.172;2022-09-27T18:26:08;11.80;99.90
758;DHT22;363;48.764;9.172;2022-09-27T18:28:43;11.80;99.90
758;DHT22;363;48.764;9.172;2022-09-27T18:31:13;11.80;99.90
758;DHT22;363;48.764;9.172;2022-09-27T18:33:39;11.50;99.90
758;DHT22;363;48.764;9.172;2022-09-27T18:36:11;11.40;99.90
758;DHT22;363;48.764;9.172;2022-09-27T18:38:37;11.50;99.90
758;DHT22;363;48.764;9.172;2022-09-27T18:41:07;11.30;99.90
758;DHT22;363;48.764;9.172;2022-09-27T18:43:33;11.30;99.90
758;DHT22;363;48.764;9.172;2022-09-27T18:46:01;11.10;99.90
758;DHT22;363;48.764;9.172;2022-09-27T18:48:26;11.20;99.90
758;DHT22;363;48.764;9.172;2022-09-27T18:50:52;11.20;99.90
758;DHT22;363;48.764;9.172;2022-09-27T18:53:18;11.30;99.90
758;DHT22;363;48.764;9.172;2022-09-27T18:55:43;11.00;99.90
758;DHT22;363;48.764;9.172;2022-09-27T18:58:09;10.90;99.90
758;DHT22;363;48.764;9.172;2022-09-27T19:00:38;10.40;99.90
758;DHT22;363;48.764;9.172;2022-09-27T19:03:04;10.70;99.90
758;DHT22;363;48.764;9.172;2022-09-27T19:05:30;11.00;99.90
758;DHT22;363;48.764;9.172;2022-09-27T19:07:55;11.00;99.90
758;DHT22;363;48.764;9.172;2022-09-27T19:10:21;11.00;99.90
758;DHT22;363;48.764;9.172;2022-09-27T19:12:47;10.80;99.90
758;DHT22;363;48.764;9.172;2022-09-27T19:15:12;10.80;99.90
758;DHT22;363;48.764;9.172;2022-09-27T19:17:38;10.30;99.90
758;DHT22;363;48.764;9.172;2022-09-27T19:20:04;10.90;99.90
758;DHT22;363;48.764;9.172;2022-09-27T19:22:31;10.60;99.90
758;DHT22;363;48.764;9.172;2022-09-27T19:24:57;10.10;99.90
758;DHT22;363;48.764;9.172;2022-09-27T19:27:23;10.60;99.90
758;DHT22;363;48.764;9.172;2022-09-27T19:29:48;10.60;99.90
758;DHT22;363;48.764;9.172;2022-09-27T19:32:14;10.40;99.90
758;DHT22;363;48.764;9.172;2022-09-27T19:34:39;10.70;99.90
758;DHT22;363;48.764;9.172;2022-09-27T19:37:05;10.30;99.90
758;DHT22;363;48.764;9.172;2022-09-27T19:39:31;10.40;99.90
758;DHT22;363;48.764;9.172;2022-09-27T19:41:56;10.60;99.90
758;DHT22;363;48.764;9.172;2022-09-27T19:44:22;10.30;99.90
758;DHT22;363;48.764;9.172;2022-09-27T19:46:49;10.20;99.90
758;DHT22;363;48.764;9.172;2022-09-27T19:49:15;10.20;99.90
758;DHT22;363;48.764;9.172;2022-09-27T19:51:43;10.20;99.90
758;DHT22;363;48.764;9.172;2022-09-27T19:54:09;10.10;99.90
758;DHT22;363;48.764;9.172;2022-09-27T19:56:35;10.20;99.90
758;DHT22;363;48.764;9.172;2022-09-27T19:59:01;10.40;99.90
758;DHT22;363;48.764;9.172;2022-09-27T20:01:27;9.50;99.90